sensor_id;sensor_type;location;lat;lon;timestamp;temperature;humidity
73112;HTU21D;61301;51.956;5.876;2023-02-11T00:02:03;10.72;62.40
73112;HTU21D;61301;51.956;5.876;2023-02-11T00:04:30;10.68;62.51
73112;HTU21D;61301;51.956;5.876;2023-02-11T00:06:56;10.73;62.37
73112;HTU21D;61301;51.956;5.876;2023-02-11T00:09:22;10.73;62.23
73112;HTU21D;61301;51.956;5.876;2023-02-11T00:11:48;10.88;61.82
73112;HTU21D;61301;51.956;5.876;2023-02-11T00:14:15;10.94;61.43
73112;HTU21D;61301;51.956;5.876;2023-02-11T00:16:41;10.74;62.15
73112;HTU21D;61301;51.956;5.876;2023-02-11T00:19:07;10.74;62.18
73112;HTU21D;61301;51.956;5.876;2023-02-11T00:21:33;10.69;62.31
73112;HTU21D;61301;51.956;5.876;2023-02-11T00:24:00;10.70;62.30
73112;HTU21D;61301;51.956;5.876;2023-02-11T00:26:31;10.68;62.41
73112;HTU21D;61301;51.956;5.876;2023-02-11T00:28:59;10.65;62.47
73112;HTU21D;61301;51.956;5.876;2023-02-11T00:31:26;10.71;62.31
73112;HTU21D;61301;51.956;5.876;2023-02-11T00:33:53;10.69;62.38
73112;HTU21D;61301;51.956;5.876;2023-02-11T00:36:24;10.70;62.34
73112;HTU21D;61301;51.956;5.876;2023-02-11T00:38:51;10.73;62.16
73112;HTU21D;61301;51.956;5.876;2023-02-11T00:41:19;10.74;62.18
73112;HTU21D;61301;51.956;5.876;2023-02-11T00:43:45;10.83;61.97
73112;HTU21D;61301;51.956;5.876;2023-02-11T00:46:12;10.81;61.87
73112;HTU21D;61301;51.956;5.876;2023-02-11T00:48:38;10.84;61.86
73112;HTU21D;61301;51.956;5.876;2023-02-11T00:51:04;10.77;62.02
73112;HTU21D;61301;51.956;5.876;2023-02-11T00:53:31;10.78;61.99
73112;HTU21D;61301;51.956;5.876;2023-02-11T00:55:57;10.81;61.86
73112;HTU21D;61301;51.956;5.876;2023-02-11T00:58:24;10.82;61.76
73112;HTU21D;61301;51.956;5.876;2023-02-11T01:00:51;10.73;62.01
73112;HTU21D;61301;51.956;5.876;2023-02-11T01:03:17;10.64;62.48
73112;HTU21D;61301;51.956;5.876;2023-02-11T01:05:43;10.71;62.35
73112;HTU21D;61301;51.956;5.876;2023-02-11T01:08:09;10.73;62.19
73112;HTU21D;61301;51.956;5.876;2023-02-11T01:10:35;10.67;62.42
73112;HTU21D;61301;51.956;5.876;2023-02-11T01:13:01;10.65;62.54
73112;HTU21D;61301;51.956;5.876;2023-02-11T01:15:27;10.63;62.62
73112;HTU21D;61301;51.956;5.876;2023-02-11T01:17:55;10.68;62.44
73112;HTU21D;61301;51.956;5.876;2023-02-11T01:20:23;10.67;62.50
73112;HTU21D;61301;51.956;5.876;2023-02-11T01:22:51;10.68;62.41
73112;HTU21D;61301;51.956;5.876;2023-02-11T01:25:17;10.63;62.67
73112;HTU21D;61301;51.956;5.876;2023-02-11T01:27:43;10.66;62.47
73112;HTU21D;61301;51.956;5.876;2023-02-11T01:30:12;10.71;62.34
73112;HTU21D;61301;51.956;5.876;2023-02-11T01:32:39;10.58;62.72
73112;HTU21D;61301;51.956;5.876;2023-02-11T01:35:05;10.55;62.73
73112;HTU21D;61301;51.956;5.876;2023-02-11T01:37:35;10.50;62.92
73112;HTU21D;61301;51.956;5.876;2023-02-11T01:40:04;10.55;62.83
73112;HTU21D;61301;51.956;5.876;2023-02-11T01:42:31;10.52;62.91
73112;HTU21D;61301;51.956;5.876;2023-02-11T01:44:59;10.56;62.79
73112;HTU21D;61301;51.956;5.876;2023-02-11T01:47:26;10.50;63.01
73112;HTU21D;61301;51.956;5.876;2023-02-11T01:49:56;10.66;62.55
73112;HTU21D;61301;51.956;5.876;2023-02-11T01:52:31;10.63;62.54
73112;HTU21D;61301;51.956;5.876;2023-02-11T01:54:59;10.69;62.31
73112;HTU21D;61301;51.956;5.876;2023-02-11T01:57:49;10.73;62.13
73112;HTU21D;61301;51.956;5.876;2023-02-11T02:00:26;10.71;62.22
73112;HTU21D;61301;51.956;5.876;2023-02-11T02:05:39;11.08;60.89
73112;HTU21D;61301;51.956;5.876;2023-02-11T02:08:18;10.80;61.86
73112;HTU21D;61301;51.956;5.876;2023-02-11T02:10:49;10.78;61.93
73112;HTU21D;61301;51.956;5.876;2023-02-11T02:13:19;10.64;62.38
73112;HTU21D;61301;51.956;5.876;2023-02-11T02:15:50;10.75;62.02
73112;HTU21D;61301;51.956;5.876;2023-02-11T02:24:10;10.63;62.54
73112;HTU21D;61301;51.956;5.876;2023-02-11T02:27:13;10.66;62.45
73112;HTU21D;61301;51.956;5.876;2023-02-11T02:36:07;10.57;62.89
73112;HTU21D;61301;51.956;5.876;2023-02-11T02:39:10;10.55;62.96
73112;HTU21D;61301;51.956;5.876;2023-02-11T02:41:38;10.50;63.18
73112;HTU21D;61301;51.956;5.876;2023-02-11T02:44:06;10.50;63.20
73112;HTU21D;61301;51.956;5.876;2023-02-11T02:46:34;10.52;63.16
73112;HTU21D;61301;51.956;5.876;2023-02-11T02:49:05;10.52;63.21
73112;HTU21D;61301;51.956;5.876;2023-02-11T02:52:04;10.56;63.09
73112;HTU21D;61301;51.956;5.876;2023-02-11T02:58:39;10.57;63.02
73112;HTU21D;61301;51.956;5.876;2023-02-11T03:03:53;10.92;61.89
73112;HTU21D;61301;51.956;5.876;2023-02-11T03:06:45;10.70;62.66
73112;HTU21D;61301;51.956;5.876;2023-02-11T03:09:40;10.52;63.34
73112;HTU21D;61301;51.956;5.876;2023-02-11T03:12:08;10.53;63.39
73112;HTU21D;61301;51.956;5.876;2023-02-11T03:14:35;10.45;63.65
73112;HTU21D;61301;51.956;5.876;2023-02-11T03:17:03;10.56;63.29
73112;HTU21D;61301;51.956;5.876;2023-02-11T03:19:38;10.49;63.66
73112;HTU21D;61301;51.956;5.876;2023-02-11T03:22:32;10.51;63.53
73112;HTU21D;61301;51.956;5.876;2023-02-11T03:25:00;10.49;63.65
73112;HTU21D;61301;51.956;5.876;2023-02-11T03:27:38;10.42;64.02
73112;HTU21D;61301;51.956;5.876;2023-02-11T03:30:12;10.39;64.18
73112;HTU21D;61301;51.956;5.876;2023-02-11T03:32:48;10.42;64.05
73112;HTU21D;61301;51.956;5.876;2023-02-11T03:35:25;10.41;64.11
73112;HTU21D;61301;51.956;5.876;2023-02-11T03:38:01;10.42;64.12
73112;HTU21D;61301;51.956;5.876;2023-02-11T03:40:35;10.40;64.31
73112;HTU21D;61301;51.956;5.876;2023-02-11T03:43:12;10.42;64.22
73112;HTU21D;61301;51.956;5.876;2023-02-11T03:45:39;10.42;64.20
73112;HTU21D;61301;51.956;5.876;2023-02-11T03:50:46;10.39;64.44
73112;HTU21D;61301;51.956;5.876;2023-02-11T03:53:14;10.42;64.28
73112;HTU21D;61301;51.956;5.876;2023-02-11T03:55:41;10.48;64.14
73112;HTU21D;61301;51.956;5.876;2023-02-11T03:58:08;10.44;64.31
73112;HTU21D;61301;51.956;5.876;2023-02-11T04:00:37;10.42;64.43
73112;HTU21D;61301;51.956;5.876;2023-02-11T04:03:04;10.46;64.31
73112;HTU21D;61301;51.956;5.876;2023-02-11T04:05:31;10.51;64.11
73112;HTU21D;61301;51.956;5.876;2023-02-11T04:07:57;10.49;64.24
73112;HTU21D;61301;51.956;5.876;2023-02-11T04:10:23;10.39;64.70
73112;HTU21D;61301;51.956;5.876;2023-02-11T04:12:49;10.41;64.61
73112;HTU21D;61301;51.956;5.876;2023-02-11T04:15:16;10.48;64.48
73112;HTU21D;61301;51.956;5.876;2023-02-11T04:17:42;10.52;64.27
73112;HTU21D;61301;51.956;5.876;2023-02-11T04:20:08;10.45;64.60
73112;HTU21D;61301;51.956;5.876;2023-02-11T04:22:35;10.51;64.42
73112;HTU21D;61301;51.956;5.876;2023-02-11T04:25:02;10.51;64.46
73112;HTU21D;61301;51.956;5.876;2023-02-11T04:27:28;10.50;64.59
73112;HTU21D;61301;51.956;5.876;2023-02-11T04:29:54;10.46;64.73
73112;HTU21D;61301;51.956;5.876;2023-02-11T04:32:20;10.36;65.12
73112;HTU21D;61301;51.956;5.876;2023-02-11T04:34:46;10.45;64.87
73112;HTU21D;61301;51.956;5.876;2023-02-11T04:37:13;10.63;64.21
73112;HTU21D;61301;51.956;5.876;2023-02-11T04:39:39;10.62;64.26
73112;HTU21D;61301;51.956;5.876;2023-02-11T04:42:05;10.58;64.39
73112;HTU21D;61301;51.956;5.876;2023-02-11T04:44:32;10.58;64.43
73112;HTU21D;61301;51.956;5.876;2023-02-11T04:46:58;10.69;64.05
73112;HTU21D;61301;51.956;5.876;2023-02-11T04:49:24;10.59;64.47
73112;HTU21D;61301;51.956;5.876;2023-02-11T04:51:50;10.57;64.52
73112;HTU21D;61301;51.956;5.876;2023-02-11T04:54:16;10.58;64.46
73112;HTU21D;61301;51.956;5.876;2023-02-11T04:56:42;10.53;64.79
73112;HTU21D;61301;51.956;5.876;2023-02-11T04:59:08;10.55;64.73
73112;HTU21D;61301;51.956;5.876;2023-02-11T05:01:34;10.48;65.02
73112;HTU21D;61301;51.956;5.876;2023-02-11T05:04:00;10.54;64.84
73112;HTU21D;61301;51.956;5.876;2023-02-11T05:06:26;10.54;64.78
73112;HTU21D;61301;51.956;5.876;2023-02-11T05:08:52;10.60;64.58
73112;HTU21D;61301;51.956;5.876;2023-02-11T05:11:21;10.57;64.71
73112;HTU21D;61301;51.956;5.876;2023-02-11T05:13:47;10.57;64.67
73112;HTU21D;61301;51.956;5.876;2023-02-11T05:16:14;10.62;64.54
73112;HTU21D;61301;51.956;5.876;2023-02-11T05:18:41;10.57;64.65
73112;HTU21D;61301;51.956;5.876;2023-02-11T05:21:10;10.48;64.98
73112;HTU21D;61301;51.956;5.876;2023-02-11T05:23:37;10.44;65.05
73112;HTU21D;61301;51.956;5.876;2023-02-11T05:26:04;10.51;64.84
73112;HTU21D;61301;51.956;5.876;2023-02-11T05:28:30;10.54;64.77
73112;HTU21D;61301;51.956;5.876;2023-02-11T05:30:56;10.55;64.78
73112;HTU21D;61301;51.956;5.876;2023-02-11T05:33:22;10.53;64.82
73112;HTU21D;61301;51.956;5.876;2023-02-11T05:35:49;10.55;64.76
73112;HTU21D;61301;51.956;5.876;2023-02-11T05:38:15;10.51;64.98
73112;HTU21D;61301;51.956;5.876;2023-02-11T05:40:41;10.48;65.15
73112;HTU21D;61301;51.956;5.876;2023-02-11T05:43:07;10.57;64.76
73112;HTU21D;61301;51.956;5.876;2023-02-11T05:45:33;10.56;64.79
73112;HTU21D;61301;51.956;5.876;2023-02-11T05:47:59;10.56;64.80
73112;HTU21D;61301;51.956;5.876;2023-02-11T05:50:25;10.62;64.67
73112;HTU21D;61301;51.956;5.876;2023-02-11T05:52:52;10.58;64.78
73112;HTU21D;61301;51.956;5.876;2023-02-11T05:55:18;10.58;64.79
73112;HTU21D;61301;51.956;5.876;2023-02-11T05:57:44;10.60;64.82
73112;HTU21D;61301;51.956;5.876;2023-02-11T06:00:10;10.58;64.84
73112;HTU21D;61301;51.956;5.876;2023-02-11T06:02:39;10.62;64.66
73112;HTU21D;61301;51.956;5.876;2023-02-11T06:05:05;10.66;64.62
73112;HTU21D;61301;51.956;5.876;2023-02-11T06:07:31;10.64;64.69
73112;HTU21D;61301;51.956;5.876;2023-02-11T06:09:57;10.52;65.15
73112;HTU21D;61301;51.956;5.876;2023-02-11T06:12:24;10.60;64.96
73112;HTU21D;61301;51.956;5.876;2023-02-11T06:14:50;10.56;65.09
73112;HTU21D;61301;51.956;5.876;2023-02-11T06:17:16;10.53;65.22
73112;HTU21D;61301;51.956;5.876;2023-02-11T06:19:42;10.53;65.35
73112;HTU21D;61301;51.956;5.876;2023-02-11T06:22:08;10.54;65.29
73112;HTU21D;61301;51.956;5.876;2023-02-11T06:24:34;10.49;65.59
73112;HTU21D;61301;51.956;5.876;2023-02-11T06:27:03;10.46;65.63
73112;HTU21D;61301;51.956;5.876;2023-02-11T06:29:29;10.38;66.07
73112;HTU21D;61301;51.956;5.876;2023-02-11T06:31:55;10.49;65.59
73112;HTU21D;61301;51.956;5.876;2023-02-11T06:34:21;10.49;65.69
73112;HTU21D;61301;51.956;5.876;2023-02-11T06:36:47;10.56;65.52
73112;HTU21D;61301;51.956;5.876;2023-02-11T06:39:13;10.54;65.53
73112;HTU21D;61301;51.956;5.876;2023-02-11T06:41:39;10.63;65.30
73112;HTU21D;61301;51.956;5.876;2023-02-11T06:44:05;10.59;65.40
73112;HTU21D;61301;51.956;5.876;2023-02-11T06:46:31;10.64;65.33
73112;HTU21D;61301;51.956;5.876;2023-02-11T06:48:57;10.66;65.27
73112;HTU21D;61301;51.956;5.876;2023-02-11T06:51:23;10.63;65.36
73112;HTU21D;61301;51.956;5.876;2023-02-11T06:53:49;10.62;65.34
73112;HTU21D;61301;51.956;5.876;2023-02-11T06:56:18;10.68;65.19
73112;HTU21D;61301;51.956;5.876;2023-02-11T06:58:44;10.67;65.30
73112;HTU21D;61301;51.956;5.876;2023-02-11T07:01:14;10.66;65.33
73112;HTU21D;61301;51.956;5.876;2023-02-11T07:03:42;10.65;65.56
73112;HTU21D;61301;51.956;5.876;2023-02-11T07:06:14;11.00;64.01
73112;HTU21D;61301;51.956;5.876;2023-02-11T07:08:41;10.68;65.46
73112;HTU21D;61301;51.956;5.876;2023-02-11T07:11:09;10.69;65.55
73112;HTU21D;61301;51.956;5.876;2023-02-11T07:13:36;10.57;66.10
73112;HTU21D;61301;51.956;5.876;2023-02-11T07:16:07;10.53;66.33
73112;HTU21D;61301;51.956;5.876;2023-02-11T07:18:34;10.55;66.27
73112;HTU21D;61301;51.956;5.876;2023-02-11T07:21:07;10.59;66.14
73112;HTU21D;61301;51.956;5.876;2023-02-11T07:23:34;10.56;66.24
73112;HTU21D;61301;51.956;5.876;2023-02-11T07:26:05;10.54;66.33
73112;HTU21D;61301;51.956;5.876;2023-02-11T07:28:31;10.62;66.14
73112;HTU21D;61301;51.956;5.876;2023-02-11T07:30:58;10.60;66.20
73112;HTU21D;61301;51.956;5.876;2023-02-11T07:33:24;10.59;66.27
73112;HTU21D;61301;51.956;5.876;2023-02-11T07:35:50;10.58;66.24
73112;HTU21D;61301;51.956;5.876;2023-02-11T07:38:16;10.62;66.23
73112;HTU21D;61301;51.956;5.876;2023-02-11T07:40:42;10.66;66.12
73112;HTU21D;61301;51.956;5.876;2023-02-11T07:43:08;10.69;66.09
73112;HTU21D;61301;51.956;5.876;2023-02-11T07:45:37;10.70;66.15
73112;HTU21D;61301;51.956;5.876;2023-02-11T07:48:03;10.64;66.38
73112;HTU21D;61301;51.956;5.876;2023-02-11T07:50:29;10.60;66.54
73112;HTU21D;61301;51.956;5.876;2023-02-11T07:52:55;10.60;66.65
73112;HTU21D;61301;51.956;5.876;2023-02-11T07:55:21;10.54;66.94
73112;HTU21D;61301;51.956;5.876;2023-02-11T07:57:47;10.54;67.01
73112;HTU21D;61301;51.956;5.876;2023-02-11T08:00:14;10.54;67.01
73112;HTU21D;61301;51.956;5.876;2023-02-11T08:02:40;10.55;67.10
73112;HTU21D;61301;51.956;5.876;2023-02-11T08:05:06;10.56;67.07
73112;HTU21D;61301;51.956;5.876;2023-02-11T08:07:32;10.55;67.28
73112;HTU21D;61301;51.956;5.876;2023-02-11T08:09:58;10.59;67.23
73112;HTU21D;61301;51.956;5.876;2023-02-11T08:12:24;10.63;67.31
73112;HTU21D;61301;51.956;5.876;2023-02-11T08:14:50;10.64;67.42
73112;HTU21D;61301;51.956;5.876;2023-02-11T08:17:16;10.64;67.49
73112;HTU21D;61301;51.956;5.876;2023-02-11T08:19:42;10.69;67.44
73112;HTU21D;61301;51.956;5.876;2023-02-11T08:22:08;10.70;67.37
73112;HTU21D;61301;51.956;5.876;2023-02-11T08:24:34;10.62;67.88
73112;HTU21D;61301;51.956;5.876;2023-02-11T08:27:00;10.72;67.58
73112;HTU21D;61301;51.956;5.876;2023-02-11T08:29:26;10.69;67.73
73112;HTU21D;61301;51.956;5.876;2023-02-11T08:31:52;10.63;68.05
73112;HTU21D;61301;51.956;5.876;2023-02-11T08:34:18;10.58;68.36
73112;HTU21D;61301;51.956;5.876;2023-02-11T08:36:46;10.62;68.27
73112;HTU21D;61301;51.956;5.876;2023-02-11T08:39:15;10.65;68.20
73112;HTU21D;61301;51.956;5.876;2023-02-11T08:41:42;10.77;67.79
73112;HTU21D;61301;51.956;5.876;2023-02-11T08:44:08;10.85;67.59
73112;HTU21D;61301;51.956;5.876;2023-02-11T08:46:34;10.87;67.55
73112;HTU21D;61301;51.956;5.876;2023-02-11T08:49:00;10.95;67.30
73112;HTU21D;61301;51.956;5.876;2023-02-11T08:51:28;10.93;67.47
73112;HTU21D;61301;51.956;5.876;2023-02-11T08:53:57;10.94;67.55
73112;HTU21D;61301;51.956;5.876;2023-02-11T08:56:24;11.04;67.23
73112;HTU21D;61301;51.956;5.876;2023-02-11T08:58:51;11.16;66.98
73112;HTU21D;61301;51.956;5.876;2023-02-11T09:01:24;11.17;66.87
73112;HTU21D;61301;51.956;5.876;2023-02-11T09:03:50;11.19;66.85
73112;HTU21D;61301;51.956;5.876;2023-02-11T09:06:17;11.19;67.04
73112;HTU21D;61301;51.956;5.876;2023-02-11T09:08:46;11.23;66.98
73112;HTU21D;61301;51.956;5.876;2023-02-11T09:11:14;11.25;67.04
73112;HTU21D;61301;51.956;5.876;2023-02-11T09:13:42;11.33;66.77
73112;HTU21D;61301;51.956;5.876;2023-02-11T09:16:15;11.30;67.05
73112;HTU21D;61301;51.956;5.876;2023-02-11T09:18:41;11.37;66.89
73112;HTU21D;61301;51.956;5.876;2023-02-11T09:21:09;11.45;66.67
73112;HTU21D;61301;51.956;5.876;2023-02-11T09:23:35;11.43;66.81
73112;HTU21D;61301;51.956;5.876;2023-02-11T09:26:08;11.41;66.98
73112;HTU21D;61301;51.956;5.876;2023-02-11T09:28:34;11.49;66.76
73112;HTU21D;61301;51.956;5.876;2023-02-11T09:31:08;11.67;66.35
73112;HTU21D;61301;51.956;5.876;2023-02-11T09:33:35;11.64;66.37
73112;HTU21D;61301;51.956;5.876;2023-02-11T09:36:02;11.64;66.31
73112;HTU21D;61301;51.956;5.876;2023-02-11T09:38:29;11.62;66.60
73112;HTU21D;61301;51.956;5.876;2023-02-11T09:40:55;11.67;66.62
73112;HTU21D;61301;51.956;5.876;2023-02-11T09:43:26;11.76;66.28
73112;HTU21D;61301;51.956;5.876;2023-02-11T09:45:55;11.70;66.45
73112;HTU21D;61301;51.956;5.876;2023-02-11T09:48:22;11.75;66.33
73112;HTU21D;61301;51.956;5.876;2023-02-11T09:50:54;11.84;66.16
73112;HTU21D;61301;51.956;5.876;2023-02-11T09:53:27;11.83;66.31
73112;HTU21D;61301;51.956;5.876;2023-02-11T09:55:57;11.90;66.01
73112;HTU21D;61301;51.956;5.876;2023-02-11T09:58:35;12.02;65.79
73112;HTU21D;61301;51.956;5.876;2023-02-11T10:04:43;11.90;65.90
73112;HTU21D;61301;51.956;5.876;2023-02-11T10:12:46;12.05;65.66
73112;HTU21D;61301;51.956;5.876;2023-02-11T10:20:28;12.12;65.47
73112;HTU21D;61301;51.956;5.876;2023-02-11T10:23:24;12.08;65.32
73112;HTU21D;61301;51.956;5.876;2023-02-11T10:25:53;11.98;65.66
73112;HTU21D;61301;51.956;5.876;2023-02-11T10:28:23;12.05;65.60
73112;HTU21D;61301;51.956;5.876;2023-02-11T10:36:30;12.20;65.08
73112;HTU21D;61301;51.956;5.876;2023-02-11T10:39:16;12.29;64.86
73112;HTU21D;61301;51.956;5.876;2023-02-11T10:41:46;12.22;64.98
73112;HTU21D;61301;51.956;5.876;2023-02-11T10:44:33;12.35;64.69
73112;HTU21D;61301;51.956;5.876;2023-02-11T10:47:04;12.38;64.62
73112;HTU21D;61301;51.956;5.876;2023-02-11T10:49:42;12.32;64.90
73112;HTU21D;61301;51.956;5.876;2023-02-11T10:55:00;12.42;64.76
73112;HTU21D;61301;51.956;5.876;2023-02-11T10:57:36;12.52;64.38
73112;HTU21D;61301;51.956;5.876;2023-02-11T11:00:20;12.77;63.90
73112;HTU21D;61301;51.956;5.876;2023-02-11T11:02:56;12.80;63.70
73112;HTU21D;61301;51.956;5.876;2023-02-11T11:05:36;12.70;63.76
73112;HTU21D;61301;51.956;5.876;2023-02-11T11:08:10;12.66;63.90
73112;HTU21D;61301;51.956;5.876;2023-02-11T11:11:00;12.80;63.95
73112;HTU21D;61301;51.956;5.876;2023-02-11T11:18:38;13.16;63.02
73112;HTU21D;61301;51.956;5.876;2023-02-11T11:21:10;13.17;62.47
73112;HTU21D;61301;51.956;5.876;2023-02-11T11:23:37;13.17;62.70
73112;HTU21D;61301;51.956;5.876;2023-02-11T11:26:05;13.12;62.50
73112;HTU21D;61301;51.956;5.876;2023-02-11T11:28:37;13.17;62.60
73112;HTU21D;61301;51.956;5.876;2023-02-11T11:31:05;13.18;62.34
73112;HTU21D;61301;51.956;5.876;2023-02-11T11:33:40;13.15;62.50
73112;HTU21D;61301;51.956;5.876;2023-02-11T11:36:10;13.09;62.73
73112;HTU21D;61301;51.956;5.876;2023-02-11T11:38:44;13.16;62.49
73112;HTU21D;61301;51.956;5.876;2023-02-11T11:41:25;13.18;62.70
73112;HTU21D;61301;51.956;5.876;2023-02-11T11:43:57;13.26;62.63
73112;HTU21D;61301;51.956;5.876;2023-02-11T11:46:30;13.46;62.25
73112;HTU21D;61301;51.956;5.876;2023-02-11T11:49:22;13.53;61.84
73112;HTU21D;61301;51.956;5.876;2023-02-11T11:51:57;13.49;61.93
73112;HTU21D;61301;51.956;5.876;2023-02-11T11:54:27;13.51;61.96
73112;HTU21D;61301;51.956;5.876;2023-02-11T11:57:02;13.41;62.42
73112;HTU21D;61301;51.956;5.876;2023-02-11T11:59:30;13.51;62.01
73112;HTU21D;61301;51.956;5.876;2023-02-11T12:05:00;13.77;61.48
73112;HTU21D;61301;51.956;5.876;2023-02-11T12:13:11;14.27;60.24
73112;HTU21D;61301;51.956;5.876;2023-02-11T12:15:42;14.30;59.28
73112;HTU21D;61301;51.956;5.876;2023-02-11T12:18:34;14.47;59.57
73112;HTU21D;61301;51.956;5.876;2023-02-11T12:27:09;14.57;58.36
73112;HTU21D;61301;51.956;5.876;2023-02-11T12:40:16;14.54;58.43
73112;HTU21D;61301;51.956;5.876;2023-02-11T12:56:35;14.73;57.71
73112;HTU21D;61301;51.956;5.876;2023-02-11T12:59:09;14.71;57.50
73112;HTU21D;61301;51.956;5.876;2023-02-11T13:01:39;14.66;57.60
73112;HTU21D;61301;51.956;5.876;2023-02-11T13:04:10;14.88;57.45
73112;HTU21D;61301;51.956;5.876;2023-02-11T13:06:42;14.94;57.61
73112;HTU21D;61301;51.956;5.876;2023-02-11T13:09:17;14.88;57.14
73112;HTU21D;61301;51.956;5.876;2023-02-11T13:11:49;14.95;57.31
73112;HTU21D;61301;51.956;5.876;2023-02-11T13:14:32;14.94;56.95
73112;HTU21D;61301;51.956;5.876;2023-02-11T13:17:00;14.84;56.93
73112;HTU21D;61301;51.956;5.876;2023-02-11T13:19:33;14.77;57.10
73112;HTU21D;61301;51.956;5.876;2023-02-11T13:30:33;14.54;57.64
73112;HTU21D;61301;51.956;5.876;2023-02-11T13:35:39;14.75;57.49
73112;HTU21D;61301;51.956;5.876;2023-02-11T13:40:41;14.91;57.42
73112;HTU21D;61301;51.956;5.876;2023-02-11T13:43:22;14.78;57.05
73112;HTU21D;61301;51.956;5.876;2023-02-11T13:45:50;14.70;57.74
73112;HTU21D;61301;51.956;5.876;2023-02-11T13:48:21;14.71;57.51
73112;HTU21D;61301;51.956;5.876;2023-02-11T13:50:52;14.75;57.58
73112;HTU21D;61301;51.956;5.876;2023-02-11T13:53:19;14.72;57.72
73112;HTU21D;61301;51.956;5.876;2023-02-11T13:55:47;14.72;57.74
73112;HTU21D;61301;51.956;5.876;2023-02-11T13:58:32;14.65;58.12
73112;HTU21D;61301;51.956;5.876;2023-02-11T14:01:00;14.39;58.78
73112;HTU21D;61301;51.956;5.876;2023-02-11T14:03:32;14.42;58.77
73112;HTU21D;61301;51.956;5.876;2023-02-11T14:06:26;14.38;58.96
73112;HTU21D;61301;51.956;5.876;2023-02-11T14:14:24;14.56;58.77
73112;HTU21D;61301;51.956;5.876;2023-02-11T14:19:38;14.47;58.88
73112;HTU21D;61301;51.956;5.876;2023-02-11T14:22:41;14.41;59.12
73112;HTU21D;61301;51.956;5.876;2023-02-11T14:25:35;14.44;59.07
73112;HTU21D;61301;51.956;5.876;2023-02-11T14:28:10;14.44;59.07
73112;HTU21D;61301;51.956;5.876;2023-02-11T14:30:49;14.45;59.02
73112;HTU21D;61301;51.956;5.876;2023-02-11T14:33:39;14.49;58.73
73112;HTU21D;61301;51.956;5.876;2023-02-11T14:36:28;14.49;58.67
73112;HTU21D;61301;51.956;5.876;2023-02-11T14:39:27;14.51;58.57
73112;HTU21D;61301;51.956;5.876;2023-02-11T14:41:54;14.55;58.58
73112;HTU21D;61301;51.956;5.876;2023-02-11T14:44:24;14.52;58.51
73112;HTU21D;61301;51.956;5.876;2023-02-11T14:46:52;14.56;58.32
73112;HTU21D;61301;51.956;5.876;2023-02-11T14:49:31;14.58;58.14
73112;HTU21D;61301;51.956;5.876;2023-02-11T14:52:18;14.56;58.32
73112;HTU21D;61301;51.956;5.876;2023-02-11T14:54:48;14.48;58.25
73112;HTU21D;61301;51.956;5.876;2023-02-11T14:57:19;14.37;58.58
73112;HTU21D;61301;51.956;5.876;2023-02-11T14:59:57;14.51;58.28
73112;HTU21D;61301;51.956;5.876;2023-02-11T15:02:31;14.52;58.17
73112;HTU21D;61301;51.956;5.876;2023-02-11T15:07:46;14.51;58.15
73112;HTU21D;61301;51.956;5.876;2023-02-11T15:10:42;14.64;57.98
73112;HTU21D;61301;51.956;5.876;2023-02-11T15:13:16;14.63;57.81
73112;HTU21D;61301;51.956;5.876;2023-02-11T15:15:44;14.55;58.01
73112;HTU21D;61301;51.956;5.876;2023-02-11T15:18:18;14.58;58.06
73112;HTU21D;61301;51.956;5.876;2023-02-11T15:20:48;14.57;57.80
73112;HTU21D;61301;51.956;5.876;2023-02-11T15:23:22;14.54;57.95
73112;HTU21D;61301;51.956;5.876;2023-02-11T15:25:49;14.50;58.12
73112;HTU21D;61301;51.956;5.876;2023-02-11T15:28:26;14.54;58.14
73112;HTU21D;61301;51.956;5.876;2023-02-11T15:31:01;14.64;57.95
73112;HTU21D;61301;51.956;5.876;2023-02-11T15:33:28;14.59;57.69
73112;HTU21D;61301;51.956;5.876;2023-02-11T15:36:01;14.64;57.49
73112;HTU21D;61301;51.956;5.876;2023-02-11T15:38:27;14.71;57.40
73112;HTU21D;61301;51.956;5.876;2023-02-11T15:41:01;14.63;57.60
73112;HTU21D;61301;51.956;5.876;2023-02-11T15:43:48;14.54;57.49
73112;HTU21D;61301;51.956;5.876;2023-02-11T15:46:18;14.45;57.62
73112;HTU21D;61301;51.956;5.876;2023-02-11T15:48:50;14.44;57.62
73112;HTU21D;61301;51.956;5.876;2023-02-11T15:51:27;14.40;57.67
73112;HTU21D;61301;51.956;5.876;2023-02-11T15:53:56;14.47;57.67
73112;HTU21D;61301;51.956;5.876;2023-02-11T15:56:38;14.43;57.63
73112;HTU21D;61301;51.956;5.876;2023-02-11T16:01:41;14.44;57.59
73112;HTU21D;61301;51.956;5.876;2023-02-11T16:04:16;14.35;57.73
73112;HTU21D;61301;51.956;5.876;2023-02-11T16:06:42;14.26;58.09
73112;HTU21D;61301;51.956;5.876;2023-02-11T16:17:04;14.23;58.14
73112;HTU21D;61301;51.956;5.876;2023-02-11T16:19:32;14.22;58.16
73112;HTU21D;61301;51.956;5.876;2023-02-11T16:22:05;14.54;56.86
73112;HTU21D;61301;51.956;5.876;2023-02-11T16:24:33;14.22;58.10
73112;HTU21D;61301;51.956;5.876;2023-02-11T16:27:06;14.14;58.38
73112;HTU21D;61301;51.956;5.876;2023-02-11T16:29:35;14.03;58.69
73112;HTU21D;61301;51.956;5.876;2023-02-11T16:34:41;14.12;58.50
73112;HTU21D;61301;51.956;5.876;2023-02-11T16:37:07;14.18;58.38
73112;HTU21D;61301;51.956;5.876;2023-02-11T16:39:33;14.10;58.52
73112;HTU21D;61301;51.956;5.876;2023-02-11T16:42:00;14.03;58.54
73112;HTU21D;61301;51.956;5.876;2023-02-11T16:44:26;14.00;58.47
73112;HTU21D;61301;51.956;5.876;2023-02-11T16:46:53;13.98;58.64
73112;HTU21D;61301;51.956;5.876;2023-02-11T16:49:20;13.95;58.63
73112;HTU21D;61301;51.956;5.876;2023-02-11T16:51:50;13.95;58.67
73112;HTU21D;61301;51.956;5.876;2023-02-11T16:54:18;13.88;58.84
73112;HTU21D;61301;51.956;5.876;2023-02-11T16:56:45;13.92;58.79
73112;HTU21D;61301;51.956;5.876;2023-02-11T16:59:11;13.85;58.71
73112;HTU21D;61301;51.956;5.876;2023-02-11T17:01:38;13.74;58.93
73112;HTU21D;61301;51.956;5.876;2023-02-11T17:04:05;13.63;59.22
73112;HTU21D;61301;51.956;5.876;2023-02-11T17:06:32;13.63;59.15
73112;HTU21D;61301;51.956;5.876;2023-02-11T17:08:59;13.60;59.08
73112;HTU21D;61301;51.956;5.876;2023-02-11T17:11:25;13.47;59.37
73112;HTU21D;61301;51.956;5.876;2023-02-11T17:13:51;13.49;59.27
73112;HTU21D;61301;51.956;5.876;2023-02-11T17:16:19;13.45;59.44
73112;HTU21D;61301;51.956;5.876;2023-02-11T17:18:46;13.40;59.44
73112;HTU21D;61301;51.956;5.876;2023-02-11T17:21:12;13.44;59.23
73112;HTU21D;61301;51.956;5.876;2023-02-11T17:23:39;13.30;59.63
73112;HTU21D;61301;51.956;5.876;2023-02-11T17:26:06;13.27;59.51
73112;HTU21D;61301;51.956;5.876;2023-02-11T17:28:32;13.18;59.92
73112;HTU21D;61301;51.956;5.876;2023-02-11T17:30:59;13.18;59.86
73112;HTU21D;61301;51.956;5.876;2023-02-11T17:33:25;13.22;59.70
73112;HTU21D;61301;51.956;5.876;2023-02-11T17:35:51;13.15;59.83
73112;HTU21D;61301;51.956;5.876;2023-02-11T17:38:17;13.11;59.91
73112;HTU21D;61301;51.956;5.876;2023-02-11T17:40:43;13.04;60.15
73112;HTU21D;61301;51.956;5.876;2023-02-11T17:43:09;13.09;59.99